sensor_id;sensor_type;location;lat;lon;timestamp;pressure;altitude;pressure_sealevel;temperature;humidity
31225;BME280;17847;31.524;74.366;2023-02-12T00:01:33;99286.38;;;11.14;59.10
31225;BME280;17847;31.524;74.366;2023-02-12T00:04:09;99295.34;;;11.27;59.59
31225;BME280;17847;31.524;74.366;2023-02-12T00:07:04;99289.38;;;11.25;59.29
31225;BME280;17847;31.524;74.366;2023-02-12T00:09:46;99284.38;;;11.31;56.58
31225;BME280;17847;31.524;74.366;2023-02-12T00:12:34;99292.44;;;11.37;57.72
31225;BME280;17847;31.524;74.366;2023-02-12T00:15:10;99294.72;;;11.40;56.93
31225;BME280;17847;31.524;74.366;2023-02-12T00:18:05;99292.13;;;11.47;58.11
31225;BME280;17847;31.524;74.366;2023-02-12T00:20:48;99289.78;;;11.37;57.55
31225;BME280;17847;31.524;74.366;2023-02-12T00:23:37;99297.38;;;11.40;56.51
31225;BME280;17847;31.524;74.366;2023-02-12T00:26:21;99291.69;;;11.43;57.08
31225;BME280;17847;31.524;74.366;2023-02-12T00:29:10;99299.72;;;11.35;57.50
31225;BME280;17847;31.524;74.366;2023-02-12T00:31:46;99297.78;;;11.29;56.16
31225;BME280;17847;31.524;74.366;2023-02-12T00:34:41;99316.47;;;11.36;58.11
31225;BME280;17847;31.524;74.366;2023-02-12T00:37:23;99311.91;;;11.44;58.62
31225;BME280;17847;31.524;74.366;2023-02-12T00:40:11;99313.00;;;11.50;56.52
31225;BME280;17847;31.524;74.366;2023-02-12T00:42:54;99308.59;;;11.57;57.37
31225;BME280;17847;31.524;74.366;2023-02-12T00:45:44;99309.03;;;11.60;58.01
31225;BME280;17847;31.524;74.366;2023-02-12T00:48:27;99307.44;;;11.59;56.39
31225;BME280;17847;31.524;74.366;2023-02-12T00:51:16;99309.88;;;11.61;55.39
31225;BME280;17847;31.524;74.366;2023-02-12T00:53:58;99325.72;;;11.54;55.85
31225;BME280;17847;31.524;74.366;2023-02-12T00:56:47;99314.56;;;11.44;54.80
31225;BME280;17847;31.524;74.366;2023-02-12T00:59:30;99326.34;;;11.56;55.34
31225;BME280;17847;31.524;74.366;2023-02-12T01:02:19;99325.44;;;11.35;56.83
31225;BME280;17847;31.524;74.366;2023-02-12T01:05:02;99322.59;;;11.51;57.13
31225;BME280;17847;31.524;74.366;2023-02-12T01:07:58;99324.06;;;11.53;55.76
31225;BME280;17847;31.524;74.366;2023-02-12T01:10:34;99322.59;;;11.36;53.33
31225;BME280;17847;31.524;74.366;2023-02-12T01:13:33;99327.53;;;11.39;56.03
31225;BME280;17847;31.524;74.366;2023-02-12T01:16:21;99333.38;;;11.35;55.44
31225;BME280;17847;31.524;74.366;2023-02-12T01:19:18;99337.59;;;11.58;56.07
31225;BME280;17847;31.524;74.366;2023-02-12T01:22:02;99347.38;;;11.58;54.45
31225;BME280;17847;31.524;74.366;2023-02-12T01:24:51;99349.25;;;11.72;53.89
31225;BME280;17847;31.524;74.366;2023-02-12T01:27:33;99339.59;;;11.56;52.79
31225;BME280;17847;31.524;74.366;2023-02-12T01:30:21;99346.09;;;11.39;54.04
31225;BME280;17847;31.524;74.366;2023-02-12T01:33:10;99355.34;;;11.43;53.12
31225;BME280;17847;31.524;74.366;2023-02-12T01:36:05;99360.66;;;11.58;53.17
31225;BME280;17847;31.524;74.366;2023-02-12T01:38:48;99365.63;;;11.76;52.01
31225;BME280;17847;31.524;74.366;2023-02-12T01:41:41;99373.22;;;11.79;52.94
31225;BME280;17847;31.524;74.366;2023-02-12T01:44:28;99375.78;;;11.72;53.26
31225;BME280;17847;31.524;74.366;2023-02-12T01:47:17;99376.16;;;11.84;52.70
31225;BME280;17847;31.524;74.366;2023-02-12T01:50:00;99382.91;;;11.86;52.18
31225;BME280;17847;31.524;74.366;2023-02-12T01:52:53;99382.56;;;11.89;51.94
31225;BME280;17847;31.524;74.366;2023-02-12T01:55:41;99388.91;;;11.65;53.63
31225;BME280;17847;31.524;74.366;2023-02-12T01:58:36;99395.59;;;11.61;53.22
31225;BME280;17847;31.524;74.366;2023-02-12T02:01:26;99396.59;;;11.60;52.82
31225;BME280;17847;31.524;74.366;2023-02-12T02:04:27;99412.88;;;11.57;53.92
31225;BME280;17847;31.524;74.366;2023-02-12T02:07:10;99422.75;;;11.49;56.08
31225;BME280;17847;31.524;74.366;2023-02-12T02:09:59;99428.72;;;11.65;53.58
31225;BME280;17847;31.524;74.366;2023-02-12T02:12:42;99441.03;;;11.81;55.41
31225;BME280;17847;31.524;74.366;2023-02-12T02:15:53;99435.31;;;11.69;54.31
31225;BME280;17847;31.524;74.366;2023-02-12T02:18:47;99450.22;;;11.70;55.11
31225;BME280;17847;31.524;74.366;2023-02-12T02:22:23;99448.34;;;11.79;56.21
31225;BME280;17847;31.524;74.366;2023-02-12T02:25:26;99451.44;;;11.83;56.28
31225;BME280;17847;31.524;74.366;2023-02-12T02:31:35;99463.47;;;12.08;56.64
31225;BME280;17847;31.524;74.366;2023-02-12T02:37:39;99464.38;;;12.00;52.93
31225;BME280;17847;31.524;74.366;2023-02-12T02:40:27;99476.38;;;12.26;55.24
31225;BME280;17847;31.524;74.366;2023-02-12T02:43:48;99482.13;;;12.29;57.01
31225;BME280;17847;31.524;74.366;2023-02-12T02:46:38;99489.91;;;12.45;54.54
31225;BME280;17847;31.524;74.366;2023-02-12T02:49:49;99495.66;;;12.64;53.57
31225;BME280;17847;31.524;74.366;2023-02-12T02:52:37;99500.69;;;12.58;53.00
31225;BME280;17847;31.524;74.366;2023-02-12T02:55:34;99532.09;;;12.84;52.79
31225;BME280;17847;31.524;74.366;2023-02-12T02:58:26;99514.75;;;12.88;47.54
31225;BME280;17847;31.524;74.366;2023-02-12T03:01:27;99534.44;;;13.72;46.62
31225;BME280;17847;31.524;74.366;2023-02-12T03:04:09;99524.50;;;13.38;47.56
31225;BME280;17847;31.524;74.366;2023-02-12T03:07:40;99539.47;;;13.61;48.07
31225;BME280;17847;31.524;74.366;2023-02-12T03:10:33;99543.13;;;13.60;47.07
31225;BME280;17847;31.524;74.366;2023-02-12T03:13:31;99557.16;;;13.96;47.14
31225;BME280;17847;31.524;74.366;2023-02-12T03:16:22;99568.44;;;14.26;46.77
31225;BME280;17847;31.524;74.366;2023-02-12T03:19:22;99572.72;;;14.48;45.37
31225;BME280;17847;31.524;74.366;2023-02-12T03:22:09;99579.59;;;14.70;44.61
31225;BME280;17847;31.524;74.366;2023-02-12T03:25:15;99583.00;;;14.23;44.04
31225;BME280;17847;31.524;74.366;2023-02-12T03:28:14;99592.63;;;13.97;42.66
31225;BME280;17847;31.524;74.366;2023-02-12T03:37:33;99584.47;;;14.05;43.50
31225;BME280;17847;31.524;74.366;2023-02-12T03:40:21;99591.72;;;15.20;43.15
31225;BME280;17847;31.524;74.366;2023-02-12T03:43:32;99589.44;;;16.17;39.00
31225;BME280;17847;31.524;74.366;2023-02-12T03:49:33;99600.56;;;17.49;34.00
31225;BME280;17847;31.524;74.366;2023-02-12T03:52:20;99589.53;;;18.20;36.34
31225;BME280;17847;31.524;74.366;2023-02-12T03:55:16;99610.38;;;19.04;34.90
31225;BME280;17847;31.524;74.366;2023-02-12T03:57:56;99618.06;;;19.01;32.78
31225;BME280;17847;31.524;74.366;2023-02-12T04:00:54;99611.16;;;19.41;31.78
31225;BME280;17847;31.524;74.366;2023-02-12T04:03:38;99615.72;;;19.70;30.10
31225;BME280;17847;31.524;74.366;2023-02-12T04:06:27;99602.81;;;19.91;29.61
31225;BME280;17847;31.524;74.366;2023-02-12T04:09:11;99606.56;;;20.01;29.44
31225;BME280;17847;31.524;74.366;2023-02-12T04:18:00;99613.63;;;20.72;25.12
31225;BME280;17847;31.524;74.366;2023-02-12T04:27:19;99622.94;;;21.16;25.93
31225;BME280;17847;31.524;74.366;2023-02-12T04:30:53;99629.22;;;21.33;24.86
31225;BME280;17847;31.524;74.366;2023-02-12T04:37:06;99630.13;;;21.50;22.88
31225;BME280;17847;31.524;74.366;2023-02-12T04:39:52;99645.41;;;21.62;24.78
31225;BME280;17847;31.524;74.366;2023-02-12T04:42:50;99644.06;;;21.47;22.48
31225;BME280;17847;31.524;74.366;2023-02-12T04:45:34;99639.31;;;21.94;25.36
31225;BME280;17847;31.524;74.366;2023-02-12T04:48:23;99639.06;;;21.96;24.31
31225;BME280;17847;31.524;74.366;2023-02-12T04:51:05;99642.38;;;21.58;23.34
31225;BME280;17847;31.524;74.366;2023-02-12T04:53:53;99640.22;;;21.72;22.81
31225;BME280;17847;31.524;74.366;2023-02-12T04:56:35;99642.66;;;21.73;23.49
31225;BME280;17847;31.524;74.366;2023-02-12T04:59:24;99645.50;;;21.67;21.46
31225;BME280;17847;31.524;74.366;2023-02-12T05:02:07;99648.44;;;21.65;24.81
31225;BME280;17847;31.524;74.366;2023-02-12T05:04:56;99645.75;;;21.65;23.36
31225;BME280;17847;31.524;74.366;2023-02-12T05:07:38;99643.00;;;21.48;23.79
31225;BME280;17847;31.524;74.366;2023-02-12T05:10:27;99651.03;;;21.88;25.42
31225;BME280;17847;31.524;74.366;2023-02-12T05:13:10;99659.34;;;21.87;23.94
31225;BME280;17847;31.524;74.366;2023-02-12T05:15:59;99660.47;;;21.74;24.67
31225;BME280;17847;31.524;74.366;2023-02-12T05:18:38;99651.84;;;21.61;25.09
31225;BME280;17847;31.524;74.366;2023-02-12T05:21:33;99670.38;;;22.14;23.70
31225;BME280;17847;31.524;74.366;2023-02-12T05:24:16;99665.22;;;21.95;22.77
31225;BME280;17847;31.524;74.366;2023-02-12T05:27:06;99660.50;;;21.91;22.15
31225;BME280;17847;31.524;74.366;2023-02-12T05:29:49;99653.94;;;21.70;23.48
31225;BME280;17847;31.524;74.366;2023-02-12T05:32:37;99663.34;;;21.68;24.14
31225;BME280;17847;31.524;74.366;2023-02-12T05:35:25;99658.44;;;21.93;22.72
31225;BME280;17847;31.524;74.366;2023-02-12T05:38:21;99652.09;;;22.32;24.67
31225;BME280;17847;31.524;74.366;2023-02-12T05:41:09;99652.66;;;21.73;22.55
31225;BME280;17847;31.524;74.366;2023-02-12T05:43:58;99653.16;;;22.31;24.49
31225;BME280;17847;31.524;74.366;2023-02-12T05:46:41;99654.22;;;22.47;25.48
31225;BME280;17847;31.524;74.366;2023-02-12T05:49:30;99656.75;;;22.70;24.29
31225;BME280;17847;31.524;74.366;2023-02-12T05:52:13;99657.06;;;22.07;22.85
31225;BME280;17847;31.524;74.366;2023-02-12T05:55:02;99663.53;;;22.06;25.81
31225;BME280;17847;31.524;74.366;2023-02-12T05:57:45;99657.25;;;21.89;24.24
31225;BME280;17847;31.524;74.366;2023-02-12T06:00:34;99651.03;;;21.88;24.38
31225;BME280;17847;31.524;74.366;2023-02-12T06:03:17;99651.75;;;22.12;25.13
31225;BME280;17847;31.524;74.366;2023-02-12T06:06:06;99650.13;;;22.11;25.11
31225;BME280;17847;31.524;74.366;2023-02-12T06:08:49;99652.47;;;22.58;25.82
31225;BME280;17847;31.524;74.366;2023-02-12T06:11:38;99650.63;;;22.42;25.22
31225;BME280;17847;31.524;74.366;2023-02-12T06:14:21;99649.38;;;22.49;24.96
31225;BME280;17847;31.524;74.366;2023-02-12T06:17:11;99651.00;;;22.50;25.38
31225;BME280;17847;31.524;74.366;2023-02-12T06:19:54;99651.25;;;22.49;25.29
31225;BME280;17847;31.524;74.366;2023-02-12T06:22:42;99646.69;;;22.66;26.07
31225;BME280;17847;31.524;74.366;2023-02-12T06:25:25;99651.72;;;22.62;24.30
31225;BME280;17847;31.524;74.366;2023-02-12T06:28:13;99644.06;;;22.54;26.62
31225;BME280;17847;31.524;74.366;2023-02-12T06:30:56;99639.97;;;22.18;25.06
31225;BME280;17847;31.524;74.366;2023-02-12T06:33:44;99638.16;;;22.57;25.42
31225;BME280;17847;31.524;74.366;2023-02-12T06:36:35;99631.22;;;22.61;25.33
31225;BME280;17847;31.524;74.366;2023-02-12T06:39:19;99637.69;;;22.60;26.04
31225;BME280;17847;31.524;74.366;2023-02-12T06:42:08;99630.56;;;22.37;24.58
31225;BME280;17847;31.524;74.366;2023-02-12T06:44:50;99626.13;;;22.65;25.26
31225;BME280;17847;31.524;74.366;2023-02-12T06:47:39;99623.44;;;22.65;23.13
31225;BME280;17847;31.524;74.366;2023-02-12T06:50:21;99619.16;;;22.69;23.17
31225;BME280;17847;31.524;74.366;2023-02-12T06:53:10;99623.13;;;22.61;24.07
31225;BME280;17847;31.524;74.366;2023-02-12T06:55:52;99620.41;;;22.45;24.85
31225;BME280;17847;31.524;74.366;2023-02-12T06:58:43;99616.19;;;22.15;23.97
31225;BME280;17847;31.524;74.366;2023-02-12T07:01:27;99616.09;;;22.27;22.04
31225;BME280;17847;31.524;74.366;2023-02-12T07:04:17;99616.34;;;22.42;25.40
31225;BME280;17847;31.524;74.366;2023-02-12T07:06:59;99611.59;;;22.16;23.90
31225;BME280;17847;31.524;74.366;2023-02-12T07:09:48;99609.88;;;21.93;23.06
31225;BME280;17847;31.524;74.366;2023-02-12T07:12:32;99602.53;;;22.05;25.05
31225;BME280;17847;31.524;74.366;2023-02-12T07:15:21;99603.03;;;22.02;24.14
31225;BME280;17847;31.524;74.366;2023-02-12T07:18:03;99599.19;;;21.98;24.72
31225;BME280;17847;31.524;74.366;2023-02-12T07:20:55;99600.09;;;22.20;25.07
31225;BME280;17847;31.524;74.366;2023-02-12T07:23:32;99595.44;;;21.99;26.61
31225;BME280;17847;31.524;74.366;2023-02-12T07:26:30;99593.34;;;21.89;24.44
31225;BME280;17847;31.524;74.366;2023-02-12T07:29:13;99589.50;;;21.85;23.81
31225;BME280;17847;31.524;74.366;2023-02-12T07:32:02;99588.72;;;21.73;25.81
31225;BME280;17847;31.524;74.366;2023-02-12T07:34:46;99579.84;;;21.89;24.79
31225;BME280;17847;31.524;74.366;2023-02-12T07:37:34;99581.25;;;22.09;24.41
31225;BME280;17847;31.524;74.366;2023-02-12T07:40:17;99576.34;;;21.89;25.65
31225;BME280;17847;31.524;74.366;2023-02-12T07:43:05;99572.97;;;21.82;23.52
31225;BME280;17847;31.524;74.366;2023-02-12T07:45:48;99568.16;;;21.84;23.20
31225;BME280;17847;31.524;74.366;2023-02-12T07:48:44;99569.19;;;22.11;22.87
31225;BME280;17847;31.524;74.366;2023-02-12T07:51:27;99562.63;;;22.07;23.62
31225;BME280;17847;31.524;74.366;2023-02-12T07:54:16;99566.31;;;22.01;24.31
31225;BME280;17847;31.524;74.366;2023-02-12T07:56:59;99562.56;;;21.74;22.98
31225;BME280;17847;31.524;74.366;2023-02-12T07:59:48;99561.03;;;21.78;25.21
31225;BME280;17847;31.524;74.366;2023-02-12T08:02:24;99558.81;;;21.75;25.21
31225;BME280;17847;31.524;74.366;2023-02-12T08:05:20;99559.44;;;21.93;23.72
31225;BME280;17847;31.524;74.366;2023-02-12T08:08:03;99552.16;;;21.77;21.56
31225;BME280;17847;31.524;74.366;2023-02-12T08:10:54;99543.06;;;21.67;20.59
31225;BME280;17847;31.524;74.366;2023-02-12T08:13:37;99550.19;;;21.73;21.58
31225;BME280;17847;31.524;74.366;2023-02-12T08:16:27;99540.91;;;21.69;22.77
31225;BME280;17847;31.524;74.366;2023-02-12T08:19:05;99536.13;;;21.71;23.63
31225;BME280;17847;31.524;74.366;2023-02-12T08:22:05;99535.69;;;21.62;25.10
31225;BME280;17847;31.524;74.366;2023-02-12T08:24:47;99535.69;;;21.62;21.17
31225;BME280;17847;31.524;74.366;2023-02-12T08:27:35;99528.00;;;21.54;19.11
31225;BME280;17847;31.524;74.366;2023-02-12T08:30:17;99535.19;;;21.48;20.08
31225;BME280;17847;31.524;74.366;2023-02-12T08:33:06;99518.72;;;21.33;18.74
31225;BME280;17847;31.524;74.366;2023-02-12T08:36:09;99517.06;;;21.16;19.97
31225;BME280;17847;31.524;74.366;2023-02-12T08:38:52;99521.06;;;21.13;19.39
31225;BME280;17847;31.524;74.366;2023-02-12T08:41:41;99526.56;;;21.18;20.86
31225;BME280;17847;31.524;74.366;2023-02-12T08:44:24;99531.94;;;21.18;18.78
31225;BME280;17847;31.524;74.366;2023-02-12T08:47:13;99522.56;;;21.09;19.23
31225;BME280;17847;31.524;74.366;2023-02-12T08:49:56;99519.50;;;20.89;17.71
31225;BME280;17847;31.524;74.366;2023-02-12T08:52:44;99528.13;;;20.91;20.58
31225;BME280;17847;31.524;74.366;2023-02-12T08:55:27;99512.41;;;20.99;21.10
31225;BME280;17847;31.524;74.366;2023-02-12T08:58:15;99520.00;;;21.02;20.74
31225;BME280;17847;31.524;74.366;2023-02-12T09:00:58;99509.22;;;21.02;21.39
31225;BME280;17847;31.524;74.366;2023-02-12T09:03:48;99509.44;;;20.84;21.01
31225;BME280;17847;31.524;74.366;2023-02-12T09:06:32;99498.69;;;20.73;19.91
31225;BME280;17847;31.524;74.366;2023-02-12T09:09:21;99489.78;;;20.84;19.92
31225;BME280;17847;31.524;74.366;2023-02-12T09:12:04;99490.66;;;20.89;20.86
31225;BME280;17847;31.524;74.366;2023-02-12T09:14:52;99499.19;;;20.98;22.99
31225;BME280;17847;31.524;74.366;2023-02-12T09:17:35;99490.53;;;20.96;21.24
31225;BME280;17847;31.524;74.366;2023-02-12T09:20:24;99492.09;;;20.92;21.29
31225;BME280;17847;31.524;74.366;2023-02-12T09:23:11;99487.50;;;20.92;20.04
31225;BME280;17847;31.524;74.366;2023-02-12T09:26:04;99491.50;;;20.90;20.05
31225;BME280;17847;31.524;74.366;2023-02-12T09:28:48;99486.53;;;20.70;19.95
31225;BME280;17847;31.524;74.366;2023-02-12T09:31:37;99486.66;;;20.63;19.05
31225;BME280;17847;31.524;74.366;2023-02-12T09:34:20;99488.41;;;20.58;21.78
31225;BME280;17847;31.524;74.366;2023-02-12T09:37:08;99490.56;;;20.56;21.02
31225;BME280;17847;31.524;74.366;2023-02-12T09:39:51;99489.34;;;20.63;21.12
31225;BME280;17847;31.524;74.366;2023-02-12T09:43:00;99493.13;;;20.51;22.07
31225;BME280;17847;31.524;74.366;2023-02-12T09:51:56;99501.81;;;20.41;19.86
31225;BME280;17847;31.524;74.366;2023-02-12T09:54:54;99495.03;;;20.39;20.03
31225;BME280;17847;31.524;74.366;2023-02-12T09:57:37;99491.28;;;20.40;20.75
31225;BME280;17847;31.524;74.366;2023-02-12T10:00:29;99486.03;;;20.33;20.34
31225;BME280;17847;31.524;74.366;2023-02-12T10:03:15;99487.06;;;20.21;20.57
31225;BME280;17847;31.524;74.366;2023-02-12T10:06:08;99487.88;;;20.09;20.64
31225;BME280;17847;31.524;74.366;2023-02-12T10:12:35;99490.69;;;20.14;20.94
31225;BME280;17847;31.524;74.366;2023-02-12T10:24:48;99487.19;;;19.91;19.82
31225;BME280;17847;31.524;74.366;2023-02-12T10:27:42;99486.97;;;19.81;20.75
31225;BME280;17847;31.524;74.366;2023-02-12T10:33:36;99489.16;;;19.72;19.92
31225;BME280;17847;31.524;74.366;2023-02-12T10:36:42;99482.38;;;19.69;19.80
31225;BME280;17847;31.524;74.366;2023-02-12T10:39:39;99480.38;;;19.53;20.08
31225;BME280;17847;31.524;74.366;2023-02-12T10:42:41;99487.97;;;19.56;21.35
31225;BME280;17847;31.524;74.366;2023-02-12T10:45:35;99487.03;;;19.51;21.28
31225;BME280;17847;31.524;74.366;2023-02-12T10:48:30;99487.34;;;19.43;20.26
31225;BME280;17847;31.524;74.366;2023-02-12T10:51:33;99495.84;;;19.40;21.59
31225;BME280;17847;31.524;74.366;2023-02-12T10:54:38;99492.47;;;19.33;19.53
31225;BME280;17847;31.524;74.366;2023-02-12T10:57:23;99497.81;;;19.33;20.54
31225;BME280;17847;31.524;74.366;2023-02-12T11:00:26;99492.41;;;19.21;20.80
31225;BME280;17847;31.524;74.366;2023-02-12T11:06:29;99498.97;;;19.25;19.80
31225;BME280;17847;31.524;74.366;2023-02-12T11:09:39;99503.75;;;19.23;21.07
31225;BME280;17847;31.524;74.366;2023-02-12T11:12:38;99508.63;;;19.14;21.70
31225;BME280;17847;31.524;74.366;2023-02-12T11:15:26;99502.75;;;19.06;21.83
31225;BME280;17847;31.524;74.366;2023-02-12T11:18:25;99502.25;;;18.97;21.38
31225;BME280;17847;31.524;74.366;2023-02-12T11:21:11;99506.88;;;18.90;20.24
31225;BME280;17847;31.524;74.366;2023-02-12T11:27:26;99497.50;;;18.81;19.56
31225;BME280;17847;31.524;74.366;2023-02-12T11:30:19;99491.75;;;18.77;20.42
31225;BME280;17847;31.524;74.366;2023-02-12T11:36:24;99489.84;;;18.66;22.02
31225;BME280;17847;31.524;74.366;2023-02-12T11:39:18;99497.75;;;18.61;21.10
31225;BME280;17847;31.524;74.366;2023-02-12T11:42:21;99495.97;;;18.55;20.97
31225;BME280;17847;31.524;74.366;2023-02-12T11:45:05;99497.41;;;18.51;21.20
31225;BME280;17847;31.524;74.366;2023-02-12T11:47:54;99499.81;;;18.41;20.42
31225;BME280;17847;31.524;74.366;2023-02-12T11:50:37;99499.28;;;18.32;20.50
31225;BME280;17847;31.524;74.366;2023-02-12T11:53:39;99500.41;;;18.25;20.65
31225;BME280;17847;31.524;74.366;2023-02-12T11:56:25;99504.41;;;18.16;22.50
31225;BME280;17847;31.524;74.366;2023-02-12T11:59:37;99502.03;;;18.08;22.46
31225;BME280;17847;31.524;74.366;2023-02-12T12:02:46;99513.19;;;18.05;23.91
31225;BME280;17847;31.524;74.366;2023-02-12T12:05:43;99512.50;;;17.91;21.31
31225;BME280;17847;31.524;74.366;2023-02-12T12:08:41;99519.09;;;17.88;20.85
31225;BME280;17847;31.524;74.366;2023-02-12T12:17:55;99529.19;;;17.62;20.27
31225;BME280;17847;31.524;74.366;2023-02-12T12:21:12;99530.88;;;17.56;18.70
31225;BME280;17847;31.524;74.366;2023-02-12T12:24:08;99537.47;;;17.53;19.28
31225;BME280;17847;31.524;74.366;2023-02-12T12:27:00;99535.13;;;17.39;21.37
31225;BME280;17847;31.524;74.366;2023-02-12T12:49:16;99542.13;;;16.95;27.38
31225;BME280;17847;31.524;74.366;2023-02-12T12:55:29;99533.78;;;16.79;27.22
31225;BME280;17847;31.524;74.366;2023-02-12T12:58:37;99538.31;;;16.78;27.74
31225;BME280;17847;31.524;74.366;2023-02-12T13:10:57;99560.91;;;16.82;31.73
31225;BME280;17847;31.524;74.366;2023-02-12T13:13:52;99583.19;;;16.70;33.17
31225;BME280;17847;31.524;74.366;2023-02-12T13:20:26;99559.34;;;16.55;32.08
31225;BME280;17847;31.524;74.366;2023-02-12T13:23:29;99565.09;;;16.52;31.39
31225;BME280;17847;31.524;74.366;2023-02-12T13:32:02;99566.31;;;16.56;30.85
31225;BME280;17847;31.524;74.366;2023-02-12T13:34:54;99570.69;;;16.64;30.76
31225;BME280;17847;31.524;74.366;2023-02-12T13:37:54;99566.31;;;16.56;32.81
31225;BME280;17847;31.524;74.366;2023-02-12T13:40:37;99574.19;;;16.44;33.36
31225;BME280;17847;31.524;74.366;2023-02-12T13:49:53;99568.44;;;16.28;33.48
31225;BME280;17847;31.524;74.366;2023-02-12T13:53:01;99573.19;;;16.19;33.18
31225;BME280;17847;31.524;74.366;2023-02-12T14:05:29;99599.50;;;15.96;35.21
31225;BME280;17847;31.524;74.366;2023-02-12T14:08:35;99598.03;;;15.80;34.36
31225;BME280;17847;31.524;74.366;2023-02-12T14:11:24;99598.47;;;15.77;34.00
31225;BME280;17847;31.524;74.366;2023-02-12T14:20:36;99612.41;;;15.59;35.45
31225;BME280;17847;31.524;74.366;2023-02-12T14:23:29;99606.22;;;15.52;33.08
31225;BME280;17847;31.524;74.366;2023-02-12T14:26:19;99599.25;;;15.58;34.83
31225;BME280;17847;31.524;74.366;2023-02-12T14:29:05;99602.94;;;15.50;34.25
31225;BME280;17847;31.524;74.366;2023-02-12T14:35:41;99610.47;;;15.40;33.33
31225;BME280;17847;31.524;74.366;2023-02-12T14:41:26;99613.53;;;15.37;33.34
31225;BME280;17847;31.524;74.366;2023-02-12T14:47:14;99610.63;;;15.25;33.97
31225;BME280;17847;31.524;74.366;2023-02-12T14:50:21;99599.31;;;15.23;34.10
31225;BME280;17847;31.524;74.366;2023-02-12T14:56:19;99602.19;;;15.15;34.08
31225;BME280;17847;31.524;74.366;2023-02-12T14:59:06;99600.56;;;15.21;35.30
31225;BME280;17847;31.524;74.366;2023-02-12T15:02:03;99611.84;;;15.16;33.99
31225;BME280;17847;31.524;74.366;2023-02-12T15:04:47;99624.94;;;15.11;34.56
31225;BME280;17847;31.524;74.366;2023-02-12T15:07:58;99623.47;;;15.02;32.67
31225;BME280;17847;31.524;74.366;2023-02-12T15:10:48;99613.84;;;15.08;35.51
31225;BME280;17847;31.524;74.366;2023-02-12T15:13:59;99604.78;;;15.02;33.48
31225;BME280;17847;31.524;74.366;2023-02-12T15:22:49;99590.34;;;14.83;33.51
31225;BME280;17847;31.524;74.366;2023-02-12T15:25:39;99588.06;;;14.80;35.64
31225;BME280;17847;31.524;74.366;2023-02-12T15:28:29;99585.84;;;14.84;34.18
31225;BME280;17847;31.524;74.366;2023-02-12T15:31:27;99579.06;;;14.81;33.33
31225;BME280;17847;31.524;74.366;2023-02-12T15:34:15;99579.88;;;14.82;33.81
31225;BME280;17847;31.524;74.366;2023-02-12T15:37:08;99581.69;;;14.75;35.13
31225;BME280;17847;31.524;74.366;2023-02-12T15:40:13;99581.91;;;14.73;33.81
31225;BME280;17847;31.524;74.366;2023-02-12T15:43:06;99578.34;;;14.60;33.47
31225;BME280;17847;31.524;74.366;2023-02-12T15:45:55;99593.94;;;14.63;37.25
31225;BME280;17847;31.524;74.366;2023-02-12T15:48:36;99599.19;;;14.50;34.75
31225;BME280;17847;31.524;74.366;2023-02-12T15:51:38;99600.00;;;14.50;36.62
31225;BME280;17847;31.524;74.366;2023-02-12T15:54:21;99596.53;;;14.50;36.89
31225;BME280;17847;31.524;74.366;2023-02-12T15:57:13;99593.84;;;14.50;36.25
31225;BME280;17847;31.524;74.366;2023-02-12T16:00:16;99588.13;;;14.53;35.02
31225;BME280;17847;31.524;74.366;2023-02-12T16:03:28;99583.66;;;14.60;35.29
31225;BME280;17847;31.524;74.366;2023-02-12T16:06:12;99579.94;;;14.95;38.48
31225;BME280;17847;31.524;74.366;2023-02-12T16:09:19;99594.41;;;15.27;37.84
31225;BME280;17847;31.524;74.366;2023-02-12T16:12:07;99592.59;;;15.34;34.55
31225;BME280;17847;31.524;74.366;2023-02-12T16:15:02;99582.78;;;15.48;34.67
31225;BME280;17847;31.524;74.366;2023-02-12T16:17:47;99577.44;;;15.48;33.28
31225;BME280;17847;31.524;74.366;2023-02-12T16:20:37;99579.34;;;15.00;33.96
31225;BME280;17847;31.524;74.366;2023-02-12T16:23:21;99577.84;;;14.84;33.47
31225;BME280;17847;31.524;74.366;2023-02-12T16:26:19;99576.78;;;14.78;33.91
31225;BME280;17847;31.524;74.366;2023-02-12T16:28:57;99573.03;;;14.66;33.38
31225;BME280;17847;31.524;74.366;2023-02-12T16:31:54;99575.09;;;14.64;33.69
31225;BME280;17847;31.524;74.366;2023-02-12T16:34:38;99566.78;;;14.46;33.35
31225;BME280;17847;31.524;74.366;2023-02-12T16:40:23;99584.50;;;14.32;34.86
31225;BME280;17847;31.524;74.366;2023-02-12T16:43:24;99584.41;;;14.19;36.95
31225;BME280;17847;31.524;74.366;2023-02-12T16:46:07;99578.41;;;14.11;35.91
31225;BME280;17847;31.524;74.366;2023-02-12T16:48:59;99583.13;;;14.15;37.68
31225;BME280;17847;31.524;74.366;2023-02-12T16:51:42;99585.75;;;14.09;37.29
31225;BME280;17847;31.524;74.366;2023-02-12T16:54:33;99576.31;;;14.06;37.52
31225;BME280;17847;31.524;74.366;2023-02-12T16:57:29;99585.50;;;14.04;36.69
31225;BME280;17847;31.524;74.366;2023-02-12T17:00:15;99583.16;;;13.94;35.39
31225;BME280;17847;31.524;74.366;2023-02-12T17:03:13;99585.81;;;13.94;35.49
31225;BME280;17847;31.524;74.366;2023-02-12T17:05:55;99575.41;;;13.99;36.33
31225;BME280;17847;31.524;74.366;2023-02-12T17:08:44;99581.63;;;14.06;36.04
31225;BME280;17847;31.524;74.366;2023-02-12T17:11:27;99584.31;;;14.06;35.55
31225;BME280;17847;31.524;74.366;2023-02-12T17:14:18;99589.88;;;14.11;34.92
31225;BME280;17847;31.524;74.366;2023-02-12T17:17:01;99603.69;;;14.00;34.68
31225;BME280;17847;31.524;74.366;2023-02-12T17:19:49;99594.06;;;13.99;34.74
31225;BME280;17847;31.524;74.366;2023-02-12T17:22:34;99588.13;;;13.97;35.54
31225;BME280;17847;31.524;74.366;2023-02-12T17:25:22;99597.50;;;13.93;36.00
31225;BME280;17847;31.524;74.366;2023-02-12T17:28:04;99589.66;;;13.85;37.48